sensor_id;sensor_type;location;lat;lon;timestamp;P1;durP1;ratioP1;P2;durP2;ratioP2
1925;SDS011;964;42.606;23.588;2022-08-06T00:02:23;4.83;;;4.33;;
1925;SDS011;964;42.606;23.588;2022-08-06T00:04:52;4.23;;;3.90;;
1925;SDS011;964;42.606;23.588;2022-08-06T00:07:19;5.20;;;4.57;;
1925;SDS011;964;42.606;23.588;2022-08-06T00:09:46;5.90;;;4.40;;
1925;SDS011;964;42.606;23.588;2022-08-06T00:12:13;5.27;;;4.03;;
1925;SDS011;964;42.606;23.588;2022-08-06T00:14:39;5.00;;;4.30;;
1925;SDS011;964;42.606;23.588;2022-08-06T00:17:08;4.23;;;3.90;;
1925;SDS011;964;42.606;23.588;2022-08-06T00:19:35;4.50;;;4.10;;
1925;SDS011;964;42.606;23.588;2022-08-06T00:22:02;4.57;;;4.17;;
1925;SDS011;964;42.606;23.588;2022-08-06T00:24:28;4.70;;;3.93;;
1925;SDS011;964;42.606;23.588;2022-08-06T00:26:55;4.77;;;4.00;;
1925;SDS011;964;42.606;23.588;2022-08-06T00:29:22;4.90;;;4.20;;
1925;SDS011;964;42.606;23.588;2022-08-06T00:31:49;5.80;;;4.07;;
1925;SDS011;964;42.606;23.588;2022-08-06T00:34:17;4.60;;;4.20;;
1925;SDS011;964;42.606;23.588;2022-08-06T00:36:44;4.77;;;4.37;;
1925;SDS011;964;42.606;23.588;2022-08-06T00:39:11;4.40;;;4.00;;
1925;SDS011;964;42.606;23.588;2022-08-06T00:41:38;4.60;;;4.00;;
1925;SDS011;964;42.606;23.588;2022-08-06T00:44:04;4.43;;;4.00;;
1925;SDS011;964;42.606;23.588;2022-08-06T00:46:31;5.60;;;4.30;;
1925;SDS011;964;42.606;23.588;2022-08-06T00:48:58;5.27;;;4.77;;
1925;SDS011;964;42.606;23.588;2022-08-06T00:51:26;4.40;;;4.03;;
1925;SDS011;964;42.606;23.588;2022-08-06T00:53:53;4.50;;;4.10;;
1925;SDS011;964;42.606;23.588;2022-08-06T00:56:20;8.53;;;4.53;;
1925;SDS011;964;42.606;23.588;2022-08-06T00:58:47;5.50;;;4.20;;
1925;SDS011;964;42.606;23.588;2022-08-06T01:01:14;4.80;;;4.40;;
1925;SDS011;964;42.606;23.588;2022-08-06T01:03:40;5.07;;;4.60;;
1925;SDS011;964;42.606;23.588;2022-08-06T01:06:07;13.03;;;5.70;;
1925;SDS011;964;42.606;23.588;2022-08-06T01:08:35;26.80;;;6.77;;
1925;SDS011;964;42.606;23.588;2022-08-06T01:11:02;11.33;;;6.20;;
1925;SDS011;964;42.606;23.588;2022-08-06T01:13:29;11.67;;;6.00;;
1925;SDS011;964;42.606;23.588;2022-08-06T01:15:57;8.77;;;6.10;;
1925;SDS011;964;42.606;23.588;2022-08-06T01:18:33;7.27;;;4.67;;
1925;SDS011;964;42.606;23.588;2022-08-06T01:21:10;7.30;;;4.50;;
1925;SDS011;964;42.606;23.588;2022-08-06T01:24:01;5.13;;;4.73;;
1925;SDS011;964;42.606;23.588;2022-08-06T01:26:40;6.93;;;5.43;;
1925;SDS011;964;42.606;23.588;2022-08-06T01:29:15;5.73;;;4.40;;
1925;SDS011;964;42.606;23.588;2022-08-06T01:31:47;5.97;;;5.37;;
1925;SDS011;964;42.606;23.588;2022-08-06T01:34:19;6.63;;;4.90;;
1925;SDS011;964;42.606;23.588;2022-08-06T01:36:51;6.70;;;5.20;;
1925;SDS011;964;42.606;23.588;2022-08-06T01:39:25;6.50;;;4.20;;
1925;SDS011;964;42.606;23.588;2022-08-06T01:41:54;5.60;;;4.80;;
1925;SDS011;964;42.606;23.588;2022-08-06T01:44:25;5.23;;;4.73;;
1925;SDS011;964;42.606;23.588;2022-08-06T01:46:55;19.80;;;5.60;;
1925;SDS011;964;42.606;23.588;2022-08-06T01:49:27;12.13;;;4.60;;
1925;SDS011;964;42.606;23.588;2022-08-06T01:51:56;5.63;;;4.40;;
1925;SDS011;964;42.606;23.588;2022-08-06T01:54:25;6.93;;;5.10;;
1925;SDS011;964;42.606;23.588;2022-08-06T01:56:54;6.53;;;4.43;;
1925;SDS011;964;42.606;23.588;2022-08-06T01:59:27;5.33;;;4.37;;
1925;SDS011;964;42.606;23.588;2022-08-06T02:01:59;6.97;;;5.40;;
1925;SDS011;964;42.606;23.588;2022-08-06T02:04:29;6.93;;;5.07;;
1925;SDS011;964;42.606;23.588;2022-08-06T02:06:59;5.20;;;4.70;;
1925;SDS011;964;42.606;23.588;2022-08-06T02:09:28;6.70;;;4.83;;
1925;SDS011;964;42.606;23.588;2022-08-06T02:11:58;5.80;;;4.27;;
1925;SDS011;964;42.606;23.588;2022-08-06T02:14:29;5.43;;;4.67;;
1925;SDS011;964;42.606;23.588;2022-08-06T02:16:58;5.10;;;4.60;;
1925;SDS011;964;42.606;23.588;2022-08-06T02:19:28;5.63;;;5.07;;
1925;SDS011;964;42.606;23.588;2022-08-06T02:21:57;5.97;;;5.37;;
1925;SDS011;964;42.606;23.588;2022-08-06T02:24:28;4.57;;;4.17;;
1925;SDS011;964;42.606;23.588;2022-08-06T02:26:56;5.53;;;5.03;;
1925;SDS011;964;42.606;23.588;2022-08-06T02:29:26;7.10;;;4.77;;
1925;SDS011;964;42.606;23.588;2022-08-06T02:31:55;5.40;;;5.00;;
1925;SDS011;964;42.606;23.588;2022-08-06T02:34:22;5.00;;;4.30;;
1925;SDS011;964;42.606;23.588;2022-08-06T02:36:52;5.23;;;4.73;;
1925;SDS011;964;42.606;23.588;2022-08-06T02:39:24;5.23;;;4.73;;
1925;SDS011;964;42.606;23.588;2022-08-06T02:41:56;8.37;;;5.30;;
1925;SDS011;964;42.606;23.588;2022-08-06T02:44:32;5.37;;;4.67;;
1925;SDS011;964;42.606;23.588;2022-08-06T02:47:07;4.37;;;3.97;;
1925;SDS011;964;42.606;23.588;2022-08-06T02:49:37;4.77;;;4.27;;
1925;SDS011;964;42.606;23.588;2022-08-06T02:52:11;5.47;;;4.97;;
1925;SDS011;964;42.606;23.588;2022-08-06T02:54:42;5.13;;;4.70;;
1925;SDS011;964;42.606;23.588;2022-08-06T02:57:15;4.93;;;4.50;;
1925;SDS011;964;42.606;23.588;2022-08-06T03:11:58;5.77;;;5.03;;
1925;SDS011;964;42.606;23.588;2022-08-06T03:14:26;5.73;;;5.20;;
1925;SDS011;964;42.606;23.588;2022-08-06T03:16:54;5.20;;;4.70;;
1925;SDS011;964;42.606;23.588;2022-08-06T03:19:22;8.73;;;5.43;;
1925;SDS011;964;42.606;23.588;2022-08-06T03:21:50;5.40;;;4.90;;
1925;SDS011;964;42.606;23.588;2022-08-06T03:24:18;5.40;;;4.80;;
1925;SDS011;964;42.606;23.588;2022-08-06T03:26:48;5.43;;;4.90;;
1925;SDS011;964;42.606;23.588;2022-08-06T03:29:18;5.70;;;4.97;;
1925;SDS011;964;42.606;23.588;2022-08-06T03:31:45;5.90;;;5.17;;
1925;SDS011;964;42.606;23.588;2022-08-06T03:34:12;6.10;;;5.50;;
1925;SDS011;964;42.606;23.588;2022-08-06T03:36:40;6.30;;;5.70;;
1925;SDS011;964;42.606;23.588;2022-08-06T03:39:07;6.27;;;5.67;;
1925;SDS011;964;42.606;23.588;2022-08-06T03:41:37;6.13;;;5.50;;
1925;SDS011;964;42.606;23.588;2022-08-06T03:44:07;6.10;;;5.50;;
1925;SDS011;964;42.606;23.588;2022-08-06T03:46:36;5.70;;;5.00;;
1925;SDS011;964;42.606;23.588;2022-08-06T03:49:08;5.80;;;4.90;;
1925;SDS011;964;42.606;23.588;2022-08-06T03:51:40;6.87;;;5.10;;
1925;SDS011;964;42.606;23.588;2022-08-06T03:54:10;7.73;;;5.07;;
1925;SDS011;964;42.606;23.588;2022-08-06T03:56:39;7.13;;;6.00;;
1925;SDS011;964;42.606;23.588;2022-08-06T03:59:09;8.83;;;5.40;;
1925;SDS011;964;42.606;23.588;2022-08-06T04:01:41;10.63;;;5.90;;
1925;SDS011;964;42.606;23.588;2022-08-06T04:04:10;7.77;;;5.70;;
1925;SDS011;964;42.606;23.588;2022-08-06T04:06:37;9.47;;;5.73;;
1925;SDS011;964;42.606;23.588;2022-08-06T04:09:05;8.23;;;6.07;;
1925;SDS011;964;42.606;23.588;2022-08-06T04:11:32;9.13;;;5.73;;
1925;SDS011;964;42.606;23.588;2022-08-06T04:14:00;7.13;;;5.53;;
1925;SDS011;964;42.606;23.588;2022-08-06T04:16:27;6.07;;;5.40;;
1925;SDS011;964;42.606;23.588;2022-08-06T04:18:57;7.40;;;5.17;;
1925;SDS011;964;42.606;23.588;2022-08-06T04:21:25;8.40;;;5.60;;
1925;SDS011;964;42.606;23.588;2022-08-06T04:23:53;5.57;;;5.07;;
1925;SDS011;964;42.606;23.588;2022-08-06T04:26:23;9.13;;;5.93;;
1925;SDS011;964;42.606;23.588;2022-08-06T04:28:53;6.53;;;5.83;;
1925;SDS011;964;42.606;23.588;2022-08-06T04:31:22;7.50;;;5.17;;
1925;SDS011;964;42.606;23.588;2022-08-06T04:33:51;5.57;;;5.07;;
1925;SDS011;964;42.606;23.588;2022-08-06T04:36:20;6.53;;;5.60;;
1925;SDS011;964;42.606;23.588;2022-08-06T04:38:48;5.50;;;5.00;;
1925;SDS011;964;42.606;23.588;2022-08-06T04:41:15;5.47;;;4.97;;
1925;SDS011;964;42.606;23.588;2022-08-06T04:43:41;7.80;;;5.47;;
1925;SDS011;964;42.606;23.588;2022-08-06T04:46:09;5.63;;;5.13;;
1925;SDS011;964;42.606;23.588;2022-08-06T04:48:36;6.13;;;5.63;;
1925;SDS011;964;42.606;23.588;2022-08-06T04:51:04;8.73;;;5.10;;
1925;SDS011;964;42.606;23.588;2022-08-06T04:53:36;5.63;;;5.13;;
1925;SDS011;964;42.606;23.588;2022-08-06T04:56:04;6.80;;;5.87;;
1925;SDS011;964;42.606;23.588;2022-08-06T04:58:31;5.87;;;5.30;;
1925;SDS011;964;42.606;23.588;2022-08-06T05:01:08;6.53;;;5.93;;
1925;SDS011;964;42.606;23.588;2022-08-06T05:03:35;7.00;;;5.60;;
1925;SDS011;964;42.606;23.588;2022-08-06T05:06:03;7.33;;;6.20;;
1925;SDS011;964;42.606;23.588;2022-08-06T05:08:38;6.60;;;5.83;;
1925;SDS011;964;42.606;23.588;2022-08-06T05:11:10;6.47;;;5.60;;
1925;SDS011;964;42.606;23.588;2022-08-06T05:13:39;6.00;;;5.40;;
1925;SDS011;964;42.606;23.588;2022-08-06T05:16:11;10.03;;;6.30;;
1925;SDS011;964;42.606;23.588;2022-08-06T05:18:40;6.43;;;5.83;;
1925;SDS011;964;42.606;23.588;2022-08-06T05:21:11;7.03;;;5.57;;
1925;SDS011;964;42.606;23.588;2022-08-06T05:23:44;7.80;;;6.13;;
1925;SDS011;964;42.606;23.588;2022-08-06T05:26:18;8.37;;;6.53;;
1925;SDS011;964;42.606;23.588;2022-08-06T05:28:45;6.13;;;5.53;;
1925;SDS011;964;42.606;23.588;2022-08-06T05:31:12;6.80;;;6.17;;
1925;SDS011;964;42.606;23.588;2022-08-06T05:33:40;9.10;;;6.67;;
1925;SDS011;964;42.606;23.588;2022-08-06T05:36:08;7.03;;;6.33;;
1925;SDS011;964;42.606;23.588;2022-08-06T05:38:38;7.07;;;6.37;;
1925;SDS011;964;42.606;23.588;2022-08-06T05:41:08;9.63;;;7.20;;
1925;SDS011;964;42.606;23.588;2022-08-06T05:43:37;8.40;;;7.13;;
1925;SDS011;964;42.606;23.588;2022-08-06T05:46:07;6.90;;;6.20;;
1925;SDS011;964;42.606;23.588;2022-08-06T05:48:36;6.57;;;5.97;;
1925;SDS011;964;42.606;23.588;2022-08-06T05:51:07;7.27;;;5.93;;
1925;SDS011;964;42.606;23.588;2022-08-06T05:53:38;7.50;;;6.60;;
1925;SDS011;964;42.606;23.588;2022-08-06T05:56:11;6.77;;;6.17;;
1925;SDS011;964;42.606;23.588;2022-08-06T05:58:42;6.23;;;5.73;;
1925;SDS011;964;42.606;23.588;2022-08-06T06:01:15;5.83;;;5.33;;
1925;SDS011;964;42.606;23.588;2022-08-06T06:03:42;7.40;;;6.70;;
1925;SDS011;964;42.606;23.588;2022-08-06T06:06:10;7.03;;;6.33;;
1925;SDS011;964;42.606;23.588;2022-08-06T06:08:37;6.63;;;5.90;;
1925;SDS011;964;42.606;23.588;2022-08-06T06:11:06;6.73;;;6.03;;
1925;SDS011;964;42.606;23.588;2022-08-06T06:13:36;6.40;;;5.80;;
1925;SDS011;964;42.606;23.588;2022-08-06T06:18:57;9.90;;;5.60;;
1925;SDS011;964;42.606;23.588;2022-08-06T06:21:34;6.50;;;5.80;;
1925;SDS011;964;42.606;23.588;2022-08-06T06:24:09;6.60;;;6.00;;
1925;SDS011;964;42.606;23.588;2022-08-06T06:26:44;6.67;;;5.93;;
1925;SDS011;964;42.606;23.588;2022-08-06T06:29:17;7.60;;;5.80;;
1925;SDS011;964;42.606;23.588;2022-08-06T06:31:56;7.57;;;5.80;;
1925;SDS011;964;42.606;23.588;2022-08-06T06:34:30;6.67;;;5.63;;
1925;SDS011;964;42.606;23.588;2022-08-06T06:37:09;6.43;;;5.83;;
1925;SDS011;964;42.606;23.588;2022-08-06T06:39:44;6.93;;;6.20;;
1925;SDS011;964;42.606;23.588;2022-08-06T06:42:22;7.47;;;5.93;;
1925;SDS011;964;42.606;23.588;2022-08-06T06:44:57;6.60;;;6.00;;
1925;SDS011;964;42.606;23.588;2022-08-06T06:47:32;7.30;;;6.13;;
1925;SDS011;964;42.606;23.588;2022-08-06T06:50:05;5.90;;;5.40;;
1925;SDS011;964;42.606;23.588;2022-08-06T06:52:38;6.67;;;5.43;;
1925;SDS011;964;42.606;23.588;2022-08-06T06:55:09;6.40;;;5.80;;
1925;SDS011;964;42.606;23.588;2022-08-06T06:57:42;5.90;;;5.30;;
1925;SDS011;964;42.606;23.588;2022-08-06T07:00:26;6.73;;;6.20;;
1925;SDS011;964;42.606;23.588;2022-08-06T07:02:54;6.10;;;5.53;;
1925;SDS011;964;42.606;23.588;2022-08-06T07:05:22;6.40;;;5.77;;
1925;SDS011;964;42.606;23.588;2022-08-06T07:07:50;6.33;;;5.60;;
1925;SDS011;964;42.606;23.588;2022-08-06T07:10:18;10.03;;;5.80;;
1925;SDS011;964;42.606;23.588;2022-08-06T07:12:46;6.10;;;5.60;;
1925;SDS011;964;42.606;23.588;2022-08-06T07:15:14;5.90;;;5.40;;
1925;SDS011;964;42.606;23.588;2022-08-06T07:17:45;5.87;;;5.37;;
1925;SDS011;964;42.606;23.588;2022-08-06T07:20:16;5.70;;;5.20;;
1925;SDS011;964;42.606;23.588;2022-08-06T07:22:45;6.00;;;5.47;;
1925;SDS011;964;42.606;23.588;2022-08-06T07:25:14;6.30;;;5.80;;
1925;SDS011;964;42.606;23.588;2022-08-06T07:27:45;5.40;;;5.00;;
1925;SDS011;964;42.606;23.588;2022-08-06T07:30:16;6.70;;;6.13;;
1925;SDS011;964;42.606;23.588;2022-08-06T07:32:45;8.57;;;5.90;;
1925;SDS011;964;42.606;23.588;2022-08-06T07:35:13;5.77;;;5.20;;
1925;SDS011;964;42.606;23.588;2022-08-06T07:37:41;5.30;;;4.90;;
1925;SDS011;964;42.606;23.588;2022-08-06T07:40:13;5.90;;;5.40;;
1925;SDS011;964;42.606;23.588;2022-08-06T07:42:50;5.90;;;5.40;;
1925;SDS011;964;42.606;23.588;2022-08-06T07:45:22;5.40;;;5.00;;
1925;SDS011;964;42.606;23.588;2022-08-06T07:47:52;5.90;;;5.40;;
1925;SDS011;964;42.606;23.588;2022-08-06T07:50:23;6.03;;;5.43;;
1925;SDS011;964;42.606;23.588;2022-08-06T07:52:50;5.37;;;4.97;;
1925;SDS011;964;42.606;23.588;2022-08-06T07:55:19;6.10;;;5.60;;
1925;SDS011;964;42.606;23.588;2022-08-06T07:57:50;6.00;;;5.50;;
1925;SDS011;964;42.606;23.588;2022-08-06T08:00:17;6.20;;;5.60;;
1925;SDS011;964;42.606;23.588;2022-08-06T08:02:44;6.20;;;5.13;;
1925;SDS011;964;42.606;23.588;2022-08-06T08:05:33;5.50;;;4.90;;
1925;SDS011;964;42.606;23.588;2022-08-06T08:08:18;5.97;;;5.20;;
1925;SDS011;964;42.606;23.588;2022-08-06T08:10:45;5.40;;;4.90;;
1925;SDS011;964;42.606;23.588;2022-08-06T08:13:13;5.60;;;5.00;;
1925;SDS011;964;42.606;23.588;2022-08-06T08:15:43;5.73;;;5.33;;
1925;SDS011;964;42.606;23.588;2022-08-06T08:18:11;5.50;;;5.00;;
1925;SDS011;964;42.606;23.588;2022-08-06T08:20:39;5.50;;;5.10;;
1925;SDS011;964;42.606;23.588;2022-08-06T08:23:09;5.90;;;5.40;;
1925;SDS011;964;42.606;23.588;2022-08-06T08:25:38;7.40;;;5.30;;
1925;SDS011;964;42.606;23.588;2022-08-06T08:28:05;5.17;;;4.70;;
1925;SDS011;964;42.606;23.588;2022-08-06T08:30:36;5.30;;;4.63;;
1925;SDS011;964;42.606;23.588;2022-08-06T08:33:04;5.43;;;5.03;;
1925;SDS011;964;42.606;23.588;2022-08-06T08:35:31;5.47;;;5.00;;
1925;SDS011;964;42.606;23.588;2022-08-06T08:37:59;5.33;;;4.90;;
1925;SDS011;964;42.606;23.588;2022-08-06T08:40:26;4.85;;;4.40;;
1925;SDS011;964;42.606;23.588;2022-08-06T08:42:55;5.32;;;4.82;;
1925;SDS011;964;42.606;23.588;2022-08-06T08:45:24;4.97;;;4.57;;
1925;SDS011;964;42.606;23.588;2022-08-06T08:47:53;4.75;;;4.22;;
1925;SDS011;964;42.606;23.588;2022-08-06T08:50:20;4.78;;;3.90;;
1925;SDS011;964;42.606;23.588;2022-08-06T08:52:50;4.35;;;3.95;;
1925;SDS011;964;42.606;23.588;2022-08-06T08:55:20;3.83;;;3.50;;
1925;SDS011;964;42.606;23.588;2022-08-06T08:57:51;4.78;;;4.38;;
1925;SDS011;964;42.606;23.588;2022-08-06T09:00:19;4.05;;;3.75;;
1925;SDS011;964;42.606;23.588;2022-08-06T09:02:46;4.72;;;3.75;;
1925;SDS011;964;42.606;23.588;2022-08-06T09:05:13;4.63;;;4.22;;
1925;SDS011;964;42.606;23.588;2022-08-06T09:07:41;4.38;;;4.00;;
1925;SDS011;964;42.606;23.588;2022-08-06T09:10:08;4.20;;;3.90;;
1925;SDS011;964;42.606;23.588;2022-08-06T09:12:39;3.97;;;3.67;;
1925;SDS011;964;42.606;23.588;2022-08-06T09:15:06;4.60;;;4.20;;
1925;SDS011;964;42.606;23.588;2022-08-06T09:17:34;4.07;;;3.78;;
1925;SDS011;964;42.606;23.588;2022-08-06T09:20:01;4.50;;;4.18;;
1925;SDS011;964;42.606;23.588;2022-08-06T09:22:30;4.65;;;4.35;;
1925;SDS011;964;42.606;23.588;2022-08-06T09:24:56;4.10;;;3.80;;
1925;SDS011;964;42.606;23.588;2022-08-06T09:27:23;4.28;;;3.97;;
1925;SDS011;964;42.606;23.588;2022-08-06T09:30:00;4.55;;;4.15;;
1925;SDS011;964;42.606;23.588;2022-08-06T09:32:36;4.05;;;3.75;;
1925;SDS011;964;42.606;23.588;2022-08-06T09:35:17;4.00;;;3.70;;
1925;SDS011;964;42.606;23.588;2022-08-06T09:37:44;4.60;;;4.30;;
1925;SDS011;964;42.606;23.588;2022-08-06T09:40:12;5.55;;;5.05;;
1925;SDS011;964;42.606;23.588;2022-08-06T09:42:41;4.50;;;4.13;;
1925;SDS011;964;42.606;23.588;2022-08-06T09:45:11;4.32;;;3.92;;
1925;SDS011;964;42.606;23.588;2022-08-06T09:47:40;5.15;;;4.70;;
1925;SDS011;964;42.606;23.588;2022-08-06T09:50:07;4.38;;;3.97;;
1925;SDS011;964;42.606;23.588;2022-08-06T09:52:34;5.55;;;4.57;;
1925;SDS011;964;42.606;23.588;2022-08-06T09:55:01;4.43;;;4.03;;
1925;SDS011;964;42.606;23.588;2022-08-06T09:57:40;4.72;;;4.32;;
1925;SDS011;964;42.606;23.588;2022-08-06T10:00:09;4.40;;;4.10;;
1925;SDS011;964;42.606;23.588;2022-08-06T10:02:54;4.30;;;4.00;;
1925;SDS011;964;42.606;23.588;2022-08-06T10:05:22;4.60;;;4.20;;
1925;SDS011;964;42.606;23.588;2022-08-06T10:08:01;5.15;;;4.75;;
1925;SDS011;964;42.606;23.588;2022-08-06T10:10:43;5.20;;;4.80;;
1925;SDS011;964;42.606;23.588;2022-08-06T10:13:17;5.15;;;3.95;;
1925;SDS011;964;42.606;23.588;2022-08-06T10:15:46;4.95;;;3.80;;
1925;SDS011;964;42.606;23.588;2022-08-06T10:18:37;4.15;;;3.85;;
1925;SDS011;964;42.606;23.588;2022-08-06T10:21:06;4.05;;;3.83;;
1925;SDS011;964;42.606;23.588;2022-08-06T10:23:34;4.55;;;3.80;;
1925;SDS011;964;42.606;23.588;2022-08-06T10:26:03;4.13;;;3.72;;
1925;SDS011;964;42.606;23.588;2022-08-06T10:28:32;4.00;;;3.70;;
1925;SDS011;964;42.606;23.588;2022-08-06T10:31:02;3.80;;;3.50;;
1925;SDS011;964;42.606;23.588;2022-08-06T10:33:31;4.03;;;3.72;;
1925;SDS011;964;42.606;23.588;2022-08-06T10:36:03;4.18;;;3.72;;
1925;SDS011;964;42.606;23.588;2022-08-06T10:38:35;4.57;;;4.28;;
1925;SDS011;964;42.606;23.588;2022-08-06T10:41:05;4.65;;;4.28;;
1925;SDS011;964;42.606;23.588;2022-08-06T10:43:34;3.95;;;3.65;;
1925;SDS011;964;42.606;23.588;2022-08-06T10:46:05;5.25;;;3.70;;
1925;SDS011;964;42.606;23.588;2022-08-06T10:48:33;3.90;;;3.60;;
1925;SDS011;964;42.606;23.588;2022-08-06T10:51:01;4.30;;;4.00;;
1925;SDS011;964;42.606;23.588;2022-08-06T10:53:29;4.15;;;3.75;;
1925;SDS011;964;42.606;23.588;2022-08-06T10:55:59;4.40;;;4.00;;
1925;SDS011;964;42.606;23.588;2022-08-06T10:58:27;4.85;;;3.95;;
1925;SDS011;964;42.606;23.588;2022-08-06T11:00:55;4.07;;;3.70;;
1925;SDS011;964;42.606;23.588;2022-08-06T11:03:24;3.50;;;3.30;;
1925;SDS011;964;42.606;23.588;2022-08-06T11:06:03;3.85;;;3.55;;
1925;SDS011;964;42.606;23.588;2022-08-06T11:08:47;4.27;;;3.87;;
1925;SDS011;964;42.606;23.588;2022-08-06T11:11:25;3.77;;;3.47;;
1925;SDS011;964;42.606;23.588;2022-08-06T11:14:05;6.53;;;4.10;;
1925;SDS011;964;42.606;23.588;2022-08-06T11:16:34;3.80;;;3.50;;
1925;SDS011;964;42.606;23.588;2022-08-06T11:19:03;3.47;;;3.28;;
1925;SDS011;964;42.606;23.588;2022-08-06T11:21:38;3.55;;;3.35;;
1925;SDS011;964;42.606;23.588;2022-08-06T11:24:06;3.10;;;2.90;;
1925;SDS011;964;42.606;23.588;2022-08-06T11:26:34;3.95;;;3.65;;
1925;SDS011;964;42.606;23.588;2022-08-06T11:29:03;3.95;;;3.65;;
1925;SDS011;964;42.606;23.588;2022-08-06T11:31:32;5.15;;;3.20;;
1925;SDS011;964;42.606;23.588;2022-08-06T11:34:03;3.38;;;3.10;;
1925;SDS011;964;42.606;23.588;2022-08-06T11:36:42;4.07;;;3.75;;
1925;SDS011;964;42.606;23.588;2022-08-06T11:39:21;3.00;;;2.80;;
1925;SDS011;964;42.606;23.588;2022-08-06T11:41:50;3.97;;;3.67;;
1925;SDS011;964;42.606;23.588;2022-08-06T11:44:22;3.47;;;3.17;;
1925;SDS011;964;42.606;23.588;2022-08-06T11:47:05;3.00;;;2.80;;
1925;SDS011;964;42.606;23.588;2022-08-06T11:49:38;3.10;;;2.80;;
1925;SDS011;964;42.606;23.588;2022-08-06T11:52:07;3.97;;;3.30;;
1925;SDS011;964;42.606;23.588;2022-08-06T11:54:35;4.18;;;3.72;;
1925;SDS011;964;42.606;23.588;2022-08-06T11:57:22;4.72;;;3.35;;
1925;SDS011;964;42.606;23.588;2022-08-06T12:00:06;3.70;;;3.40;;
1925;SDS011;964;42.606;23.588;2022-08-06T12:02:52;5.53;;;3.65;;
1925;SDS011;964;42.606;23.588;2022-08-06T12:05:41;3.45;;;3.25;;
1925;SDS011;964;42.606;23.588;2022-08-06T12:13:52;3.85;;;3.50;;
1925;SDS011;964;42.606;23.588;2022-08-06T12:16:29;4.05;;;3.75;;
1925;SDS011;964;42.606;23.588;2022-08-06T12:19:10;3.90;;;3.60;;
1925;SDS011;964;42.606;23.588;2022-08-06T12:21:41;3.10;;;2.90;;
1925;SDS011;964;42.606;23.588;2022-08-06T12:24:08;4.15;;;3.85;;
1925;SDS011;964;42.606;23.588;2022-08-06T12:26:36;3.75;;;3.45;;
1925;SDS011;964;42.606;23.588;2022-08-06T12:29:03;4.13;;;3.83;;
1925;SDS011;964;42.606;23.588;2022-08-06T12:31:32;3.97;;;3.67;;
1925;SDS011;964;42.606;23.588;2022-08-06T12:34:01;3.70;;;3.45;;
1925;SDS011;964;42.606;23.588;2022-08-06T12:36:29;4.38;;;4.07;;
1925;SDS011;964;42.606;23.588;2022-08-06T12:38:59;3.65;;;3.45;;
1925;SDS011;964;42.606;23.588;2022-08-06T12:41:40;3.58;;;3.38;;
1925;SDS011;964;42.606;23.588;2022-08-06T12:44:11;4.43;;;4.13;;
1925;SDS011;964;42.606;23.588;2022-08-06T12:46:39;4.05;;;3.75;;
1925;SDS011;964;42.606;23.588;2022-08-06T12:49:06;4.10;;;3.80;;
1925;SDS011;964;42.606;23.588;2022-08-06T12:51:34;3.83;;;3.53;;
1925;SDS011;964;42.606;23.588;2022-08-06T12:54:04;3.28;;;3.08;;
1925;SDS011;964;42.606;23.588;2022-08-06T12:56:32;3.28;;;3.08;;
1925;SDS011;964;42.606;23.588;2022-08-06T12:59:03;4.80;;;4.40;;
1925;SDS011;964;42.606;23.588;2022-08-06T13:01:33;4.45;;;4.05;;
1925;SDS011;964;42.606;23.588;2022-08-06T13:04:01;4.22;;;3.92;;
1925;SDS011;964;42.606;23.588;2022-08-06T13:06:34;5.82;;;4.32;;
1925;SDS011;964;42.606;23.588;2022-08-06T13:09:05;4.28;;;3.97;;
1925;SDS011;964;42.606;23.588;2022-08-06T13:11:32;4.88;;;4.47;;
1925;SDS011;964;42.606;23.588;2022-08-06T13:14:07;4.18;;;3.78;;
1925;SDS011;964;42.606;23.588;2022-08-06T13:16:39;4.68;;;4.20;;
1925;SDS011;964;42.606;23.588;2022-08-06T13:19:09;5.67;;;4.13;;
1925;SDS011;964;42.606;23.588;2022-08-06T13:21:37;3.83;;;3.53;;
1925;SDS011;964;42.606;23.588;2022-08-06T13:24:06;4.20;;;3.80;;
1925;SDS011;964;42.606;23.588;2022-08-06T13:26:46;4.43;;;4.13;;
1925;SDS011;964;42.606;23.588;2022-08-06T13:29:14;4.28;;;3.88;;
1925;SDS011;964;42.606;23.588;2022-08-06T13:31:43;3.60;;;3.40;;
1925;SDS011;964;42.606;23.588;2022-08-06T13:34:10;3.60;;;3.30;;
1925;SDS011;964;42.606;23.588;2022-08-06T13:36:39;4.13;;;3.83;;
1925;SDS011;964;42.606;23.588;2022-08-06T13:39:24;5.15;;;3.70;;
1925;SDS011;964;42.606;23.588;2022-08-06T13:41:59;4.50;;;4.20;;
1925;SDS011;964;42.606;23.588;2022-08-06T13:44:30;4.20;;;3.60;;
1925;SDS011;964;42.606;23.588;2022-08-06T13:46:59;4.90;;;4.60;;
1925;SDS011;964;42.606;23.588;2022-08-06T13:49:27;3.88;;;3.50;;
1925;SDS011;964;42.606;23.588;2022-08-06T13:51:53;4.65;;;4.25;;
1925;SDS011;964;42.606;23.588;2022-08-06T13:54:21;5.00;;;4.13;;
1925;SDS011;964;42.606;23.588;2022-08-06T13:56:50;4.28;;;3.97;;
1925;SDS011;964;42.606;23.588;2022-08-06T13:59:18;3.80;;;3.50;;
1925;SDS011;964;42.606;23.588;2022-08-06T14:01:46;6.43;;;4.90;;
1925;SDS011;964;42.606;23.588;2022-08-06T14:04:15;4.90;;;4.50;;
1925;SDS011;964;42.606;23.588;2022-08-06T14:06:45;4.28;;;3.97;;
1925;SDS011;964;42.606;23.588;2022-08-06T14:09:12;5.07;;;4.68;;
1925;SDS011;964;42.606;23.588;2022-08-06T14:11:39;4.80;;;4.38;;
1925;SDS011;964;42.606;23.588;2022-08-06T14:14:08;4.80;;;4.40;;
1925;SDS011;964;42.606;23.588;2022-08-06T14:16:35;4.88;;;4.47;;
1925;SDS011;964;42.606;23.588;2022-08-06T14:19:01;3.85;;;3.55;;
1925;SDS011;964;42.606;23.588;2022-08-06T14:21:28;5.78;;;5.28;;
1925;SDS011;964;42.606;23.588;2022-08-06T14:23:55;4.78;;;4.38;;
1925;SDS011;964;42.606;23.588;2022-08-06T14:26:22;5.00;;;4.60;;
1925;SDS011;964;42.606;23.588;2022-08-06T14:28:48;9.38;;;4.88;;
1925;SDS011;964;42.606;23.588;2022-08-06T14:31:16;4.45;;;4.10;;
1925;SDS011;964;42.606;23.588;2022-08-06T14:33:43;5.07;;;4.47;;
1925;SDS011;964;42.606;23.588;2022-08-06T14:36:10;4.10;;;3.80;;
1925;SDS011;964;42.606;23.588;2022-08-06T14:38:37;4.70;;;4.30;;
1925;SDS011;964;42.606;23.588;2022-08-06T14:41:05;8.83;;;4.47;;
1925;SDS011;964;42.606;23.588;2022-08-06T14:43:49;4.53;;;4.13;;
1925;SDS011;964;42.606;23.588;2022-08-06T14:46:35;5.27;;;4.87;;
1925;SDS011;964;42.606;23.588;2022-08-06T14:49:01;4.30;;;4.00;;
1925;SDS011;964;42.606;23.588;2022-08-06T14:51:28;4.30;;;4.00;;
1925;SDS011;964;42.606;23.588;2022-08-06T14:53:55;4.53;;;4.18;;
1925;SDS011;964;42.606;23.588;2022-08-06T14:56:22;4.70;;;4.18;;
1925;SDS011;964;42.606;23.588;2022-08-06T14:58:48;6.10;;;4.88;;
1925;SDS011;964;42.606;23.588;2022-08-06T15:01:15;5.03;;;4.63;;
1925;SDS011;964;42.606;23.588;2022-08-06T15:03:43;4.60;;;4.30;;
1925;SDS011;964;42.606;23.588;2022-08-06T15:06:10;5.47;;;4.90;;
1925;SDS011;964;42.606;23.588;2022-08-06T15:08:37;4.93;;;4.50;;
1925;SDS011;964;42.606;23.588;2022-08-06T15:11:03;5.05;;;4.65;;
1925;SDS011;964;42.606;23.588;2022-08-06T15:13:30;4.80;;;4.40;;
1925;SDS011;964;42.606;23.588;2022-08-06T15:15:57;5.47;;;4.20;;
1925;SDS011;964;42.606;23.588;2022-08-06T15:18:24;5.57;;;4.85;;
1925;SDS011;964;42.606;23.588;2022-08-06T15:20:52;4.95;;;4.45;;
1925;SDS011;964;42.606;23.588;2022-08-06T15:23:19;4.82;;;4.53;;
1925;SDS011;964;42.606;23.588;2022-08-06T15:25:46;4.57;;;3.90;;
1925;SDS011;964;42.606;23.588;2022-08-06T15:28:12;4.53;;;4.18;;
1925;SDS011;964;42.606;23.588;2022-08-06T15:30:41;5.00;;;4.40;;
1925;SDS011;964;42.606;23.588;2022-08-06T15:33:08;4.50;;;4.07;;
1925;SDS011;964;42.606;23.588;2022-08-06T15:35:34;4.35;;;4.05;;
1925;SDS011;964;42.606;23.588;2022-08-06T15:38:03;4.88;;;4.47;;
1925;SDS011;964;42.606;23.588;2022-08-06T15:40:29;4.78;;;4.38;;
1925;SDS011;964;42.606;23.588;2022-08-06T15:42:56;4.60;;;4.30;;
1925;SDS011;964;42.606;23.588;2022-08-06T15:45:23;4.60;;;4.30;;
1925;SDS011;964;42.606;23.588;2022-08-06T15:47:50;5.20;;;4.47;;
1925;SDS011;964;42.606;23.588;2022-08-06T15:50:17;6.75;;;4.18;;
1925;SDS011;964;42.606;23.588;2022-08-06T15:52:44;4.05;;;3.65;;
1925;SDS011;964;42.606;23.588;2022-08-06T15:55:12;4.70;;;4.30;;